Nearby METAR Reports

 

KHEZ - Natchez/Hardy, Mississippi, USA
Distance from station: W 24mi, 38km
Updated: Sat, 19-Aug-2017 1:56am CDT
Clear
Clear
 Wind from SSW
Wind: SSW 3 mph , 6 km/h
Temperature: 79°F , 26°C
Dew Point: 75°F , 24°C
Humidity: 89%
Barometer: 30.00 inHg , 1015.9 hPa
Clouds: Clear
Visibility: 10 miles , 16 km
2017/08/19 06:56 KHEZ 190656Z AUTO 20003KT 10SM CLR 26/24 A3000 RMK AO2 SLP160 T02610244
K1R7 - Brookhaven, Mississippi, USA
Distance from station: E 28mi, 46km
Updated: Wed, 21-Jun-2017 3:15pm CDT
NOT Current
Mostly cloudy
Mostly cloudy
 Wind from ENE
Wind: ENE 3 mph , 6 km/h
Temperature: 77°F , 25°C
Dew Point: 75°F , 24°C
Humidity: 94%
Barometer: 29.83 inHg , 1010.2 hPa
Clouds: Mostly cloudy
Visibility: 10 miles , 16 km
Cloud details: Mostly cloudy 500 ft
2017/06/21 20:15 K1R7 212015Z AUTO 06003KT 10SM BKN005 25/24 A2983 RMK AO2
 
KMCB - Mccomb, Mississippi, USA
Distance from station: SE 38mi, 61km
Updated: Sat, 19-Aug-2017 1:53am CDT
Clear
Clear
 Wind from calm
Wind: Calm
Temperature: 75°F , 24°C
Dew Point: 72°F , 22°C
Humidity: 89%
Barometer: 30.01 inHg , 1016.3 hPa
Clouds: Clear
Visibility: 10 miles , 16 km
2017/08/19 06:53 KMCB 190653Z AUTO 00000KT 10SM CLR 24/22 A3001 RMK AO2 SLP154 T02440222 TSNO
KTVR - Tallulah/Vicksbu, Louisiana, USA
Distance from station: N 53mi, 86km
Updated: Sat, 19-Aug-2017 1:53am CDT
Mist, Clear
Mist, Clear
 Wind from calm
Wind: Calm
Temperature: 79°F , 26°C
Dew Point: 77°F , 25°C
Humidity: 94%
Barometer: 29.99 inHg , 1015.6 hPa
Summary: Mist
Clouds: Clear
Visibility: 6 miles , 10 km
2017/08/19 06:53 KTVR 190653Z AUTO 00000KT 6SM BR CLR 26/25 A2999 RMK AO2 SLP160 T02560250
 
KJVW - Raymond, Mississippi, USA
Distance from station: NNE 57mi, 91km
Updated: Sat, 19-Aug-2017 2:15am CDT
Mist, Clear
Mist, Clear
 Wind from calm
Wind: Calm
Temperature: 77°F , 25°C
Dew Point: 75°F , 24°C
Humidity: 94%
Barometer: 29.99 inHg , 1015.6 hPa
Summary: Mist
Clouds: Clear
Visibility: 5 miles , 8 km
2017/08/19 07:15 KJVW 190715Z AUTO 00000KT 5SM BR CLR 25/24 A2999 RMK AO2
KHKS - Jackson/Hawkins, Mississippi, USA
Distance from station: NE 65mi, 105km
Updated: Sat, 19-Aug-2017 1:53am CDT
Clear
Clear
 Wind from S
Wind: S 3 mph , 6 km/h
Temperature: 79°F , 26°C
Dew Point: 75°F , 24°C
Humidity: 89%
Barometer: 30.00 inHg , 1015.9 hPa
Clouds: Clear
Visibility: 10 miles , 16 km
2017/08/19 06:53 KHKS 190653Z AUTO 18003KT 10SM CLR 26/24 A3000 RMK AO2 SLP148 T02560244
 
KHZR - New Roads, Louisiana, USA
Distance from station: SSW 69mi, 112km
Updated: Sat, 19-Aug-2017 2:15am CDT
Clear
Clear
 Wind from calm
Wind: Calm
Temperature: 79°F , 26°C
Dew Point: 77°F , 25°C
Humidity: 94%
Barometer: 30.00 inHg , 1015.9 hPa
Clouds: Clear
Visibility: 10 miles , 16 km
2017/08/19 07:15 KHZR 190715Z AUTO 00000KT 10SM CLR 26/25 A3000 RMK AO2 T02550248
KJAN - Jackson, Mississippi, USA
Distance from station: NE 69mi, 112km
Updated: Sat, 19-Aug-2017 1:54am CDT
Few Clouds
Few Clouds
 Wind from SE
Wind: SE 3 mph , 6 km/h
Temperature: 75°F , 24°C
Dew Point: 75°F , 24°C
Humidity: 100%
Barometer: 30.00 inHg , 1015.9 hPa
Clouds: Few Clouds
Visibility: 10 miles , 16 km
Cloud details: Few Clouds 4100 ft
2017/08/19 06:54 KJAN 190654Z AUTO 14003KT 10SM FEW041 24/24 A3000 RMK AO2 SLP152 T02440239
 
KBTR - Baton Rouge, Louisiana, USA
Distance from station: S 74mi, 120km
Updated: Sat, 19-Aug-2017 1:53am CDT
Few Clouds
Few Clouds
 Wind from calm
Wind: Calm
Temperature: 81°F , 27°C
Heat Index: 87°F , 31°C
Dew Point: 75°F , 24°C
Humidity: 84%
Barometer: 29.99 inHg , 1015.6 hPa
Clouds: Few Clouds
Visibility: 10 miles , 16 km
Cloud details: Few Clouds 4400 ft
2017/08/19 06:53 KBTR 190653Z AUTO 00000KT 10SM FEW044 27/24 A2999 RMK AO2 SLP154 T02670244
KHDC - Hammond, Louisiana, USA
Distance from station: SSE 79mi, 128km
Updated: Sat, 19-Aug-2017 2:15am CDT
Clear
Clear
 Wind from calm
Wind: Calm
Temperature: 79°F , 26°C
Dew Point: 73°F , 23°C
Humidity: 84%
Barometer: 29.99 inHg , 1015.6 hPa
Clouds: Clear
Visibility: 10 miles , 16 km
2017/08/19 07:15 KHDC 190715Z AUTO 00000KT 10SM CLR 26/23 A2999 RMK AO2
 
KBXA - Bogalusa Carr F, Louisiana, USA
Distance from station: SE 81mi, 130km
Updated: Sat, 19-Aug-2017 2:15am CDT
Clear
Clear
 Wind from calm
Wind: Calm
Temperature: 77°F , 25°C
Dew Point: 73°F , 23°C
Humidity: 89%
Barometer: 30.00 inHg , 1015.9 hPa
Clouds: Clear
Visibility: 10 miles , 16 km
2017/08/19 07:15 KBXA 190715Z AUTO 00000KT 10SM CLR 25/23 A3000 RMK AO2 T02500230
KESF - Alexandria, Louisiana, USA
Distance from station: W 83mi, 133km
Updated: Sat, 19-Aug-2017 2:12am CDT
Mist, Clear
Mist, Clear
 Wind from calm
Wind: Calm
Temperature: 75°F , 24°C
Dew Point: 75°F , 24°C
Humidity: 100%
Barometer: 30.00 inHg , 1015.9 hPa
Summary: Mist
Clouds: Clear
Visibility: 3 miles , 5 km
2017/08/19 07:12 KESF 190712Z AUTO 00000KT 3SM BR CLR 24/24 A3000 RMK AO2 T02440244 TSNO
 
KMLU - Monroe, Louisiana, USA
Distance from station: NW 92mi, 149km
Updated: Sat, 19-Aug-2017 1:53am CDT
Clear
Clear
 Wind from S
Wind: S 3 mph , 6 km/h
Temperature: 81°F , 27°C
Heat Index: 87°F , 31°C
Dew Point: 75°F , 24°C
Humidity: 84%
Barometer: 29.99 inHg , 1015.6 hPa
Clouds: Clear
Visibility: 10 miles , 16 km
2017/08/19 06:53 KMLU 190653Z AUTO 18003KT 10SM CLR 27/24 A2999 RMK AO2 SLP153 T02670239
KPIB - Pine Belt Rgnl, Mississippi, USA
Distance from station: E 94mi, 150km
Updated: Sat, 19-Aug-2017 1:56am CDT
Clear
Clear
 Wind from calm
Wind: Calm
Temperature: 75°F , 24°C
Dew Point: 73°F , 23°C
Humidity: 94%
Barometer: 30.01 inHg , 1016.3 hPa
Clouds: Clear
Visibility: 7 miles , 11 km
2017/08/19 06:56 KPIB 190656Z AUTO 00000KT 7SM CLR 24/23 A3001 RMK AO2 SLP159 T02390233
 
KL38 - Gonzales, Louisiana, USA
Distance from station: S 98mi, 158km
Updated: Fri, 03-Mar-2017 2:50pm CST
NOT Current
Clear
Clear
 Wind from ESE
Wind: ESE 8 mph , 13 km/h
Temperature: 70°F , 21°C
Dew Point: 30°F , -1°C
Humidity: 23%
Barometer: 30.46 inHg , 1031.5 hPa
Clouds: Clear
Visibility: 10 miles , 16 km
2017/03/03 20:50 KL38 032050Z AUTO 11007KT 10SM CLR 21/M01 A3046 RMK AO2 T02061013
KBQP - Bastrop Morehous, Louisiana, USA
Distance from station: NW 99mi, 159km
Updated: Sat, 19-Aug-2017 2:15am CDT
Clear
Clear
 Wind from calm
Wind: Calm
Temperature: 77°F , 25°C
Dew Point: 77°F , 25°C
Humidity: 100%
Barometer: 30.00 inHg , 1015.9 hPa
Clouds: Clear
Visibility: 10 miles , 16 km
2017/08/19 07:15 KBQP 190715Z AUTO 00000KT 10SM CLR 25/25 A3000 RMK AO2 LTG DSNT N T02510247
 
KHBG - Hattiesburg, Mississippi, USA
Distance from station: ESE 100mi, 160km
Updated: Sat, 19-Aug-2017 1:53am CDT
Clear
Clear
 Wind from SE
Wind: SE 3 mph , 6 km/h
Temperature: 75°F , 24°C
Dew Point: 73°F , 23°C
Humidity: 94%
Barometer: 30.00 inHg , 1015.9 hPa
Clouds: Clear
Visibility: 10 miles , 16 km
2017/08/19 06:53 KHBG 190653Z AUTO 14003KT 10SM CLR 24/23 A3000 RMK AO2 SLP154 T02390233
KAEX - Alexandria, Louisiana, USA
Distance from station: W 100mi, 161km
Updated: Sat, 19-Aug-2017 1:53am CDT

 
Barometer: 29.98 inHg , 1015.2 hPa
2017/08/19 06:53 KAEX 190653Z A2998 RMK AO2 SLPNO $
 
KOPL - Opelousas, Louisiana, USA
Distance from station: SW 101mi, 162km
Updated: Sat, 19-Aug-2017 2:15am CDT
Clear
Clear
 Wind from calm
Wind: Calm
Temperature: 77°F , 25°C
Dew Point: 77°F , 25°C
Humidity: 100%
Barometer: 30.00 inHg , 1015.9 hPa
Clouds: Clear
Visibility: 10 miles , 16 km
2017/08/19 07:15 KOPL 190715Z AUTO 00000KT 10SM CLR 25/25 A3000 RMK AO2 T02530252
KASD - Slidell 22, Louisiana, USA
Distance from station: SE 107mi, 172km
Updated: Sat, 19-Aug-2017 1:53am CDT
Clear
Clear
 Wind from calm
Wind: Calm
Temperature: 79°F , 26°C
Dew Point: 75°F , 24°C
Humidity: 89%
Barometer: 29.98 inHg , 1015.2 hPa
Clouds: Clear
Visibility: 10 miles , 16 km
2017/08/19 06:53 KASD 190653Z AUTO 00000KT 10SM CLR 26/24 A2998 RMK AO2 SLP152 T02560239